| time (UTC) | temp F | wind direction | speed MPH | gust MPH | rain 1hr in | rain 24hr in | rain mn in | humidity % | barometer mb |
| 20260831063024 | 64 | 85 | 7.0 | 13.0 | 0.00 | 0.00 | 0.00 | 52 | 1027.3 |
| 20260831061527 | 65 | 104 | 6.0 | 11.0 | 0.00 | 0.00 | 0.00 | 51 | 1027.1 |
| 20260831060014 | 66 | 54 | 3.0 | 8.0 | 0.00 | 0.00 | 0.00 | 50 | 1026.9 |
| 20260831054537 | 65 | 52 | 6.0 | 11.0 | 0.00 | 0.00 | 0.00 | 51 | 1026.9 |
| 20260831053020 | 66 | 83 | 7.0 | 11.0 | 0.00 | 0.00 | 0.00 | 48 | 1027.0 |
| 20260831051538 | 68 | 120 | 4.0 | 7.0 | 0.00 | 0.00 | 0.00 | 43 | 1026.9 |
| 20260831050011 | 70 | 175 | 0.0 | 4.0 | 0.00 | 0.00 | 0.00 | 39 | 1027.0 |
| 20260831044516 | 69 | 89 | 0.0 | 3.0 | 0.00 | 0.00 | 0.00 | 38 | 1027.1 |
| 20260831043008 | 69 | 47 | 3.0 | 9.0 | 0.00 | 0.00 | 0.00 | 36 | 1027.2 |
| 20260831041506 | 68 | 292 | 0.0 | 3.0 | 0.00 | 0.00 | 0.00 | 41 | 1027.3 |
| 20260831040057 | 67 | 109 | 1.0 | 3.0 | 0.00 | 0.00 | 0.00 | 37 | 1027.3 |
| 20260831034558 | 67 | 246 | 1.0 | 7.0 | 0.00 | 0.00 | 0.00 | 39 | 1027.5 |
| 20260831033103 | 67 | 40 | 3.0 | 6.0 | 0.00 | 0.00 | 0.00 | 37 | 1027.8 |
| 20260831031600 | 68 | 300 | 3.0 | 7.0 | 0.00 | 0.00 | 0.00 | 36 | 1027.9 |
| 20260831030044 | 67 | 274 | 1.0 | 6.0 | 0.00 | 0.00 | 0.00 | 38 | 1028.2 |
| 20260831024508 | 66 | 238 | 1.0 | 7.0 | 0.00 | 0.00 | 0.00 | 40 | 1028.4 |
| 20260831023045 | 66 | 147 | 2.0 | 6.0 | 0.00 | 0.00 | 0.00 | 39 | 1028.6 |
| 20260831021536 | 66 | 95 | 3.0 | 6.0 | 0.00 | 0.00 | 0.00 | 37 | 1029.0 |
| 20260831020016 | 66 | 118 | 1.0 | 6.0 | 0.00 | 0.00 | 0.00 | 41 | 1029.3 |
| 20260831014530 | 65 | 116 | 3.0 | 7.0 | 0.00 | 0.00 | 0.00 | 38 | 1029.6 |
| 20260831013059 | 65 | 244 | 0.0 | 4.0 | 0.00 | 0.00 | 0.00 | 43 | 1029.9 |
| 20260831011554 | 65 | 285 | 0.0 | 4.0 | 0.00 | 0.00 | 0.00 | 45 | 1030.1 |
| 20260831010030 | 65 | 252 | 1.0 | 5.0 | 0.00 | 0.00 | 0.00 | 41 | 1030.3 |
| 20260831004529 | 63 | 246 | 0.0 | 4.0 | 0.00 | 0.00 | 0.00 | 60 | 1030.3 |
| 20260831003058 | 62 | 215 | 0.0 | 4.0 | 0.00 | 0.00 | 0.00 | 61 | 1030.4 |
| 20260831003007 | 62 | 257 | 0.0 | 4.0 | 0.00 | 0.00 | 0.00 | 59 | 1030.4 |
| 20260831001548 | 61 | 300 | 1.0 | 4.0 | 0.00 | 0.00 | 0.00 | 61 | 1030.4 |
| 20260831000034 | 60 | 267 | 0.0 | 4.0 | 0.00 | 0.00 | 0.00 | 64 | 1030.4 |
| 20260830234534 | 59 | 267 | 1.0 | 4.0 | 0.00 | 0.00 | 0.00 | 67 | 1030.5 |
| 20260830233054 | 58 | 331 | 1.0 | 4.0 | 0.00 | 0.00 | 0.00 | 67 | 1030.6 |
| 20260830231558 | 56 | 304 | 0.0 | 3.0 | 0.00 | 0.00 | 0.00 | 71 | 1030.6 |
| 20260830230037 | 56 | 263 | 0.0 | 1.0 | 0.00 | 0.00 | 0.00 | 75 | 1030.7 |
| 20260830224527 | 54 | 35 | 0.0 | 1.0 | 0.00 | 0.00 | 0.00 | 76 | 1030.8 |
| 20260830223022 | 50 | 303 | 0.0 | 2.0 | 0.00 | 0.00 | 0.00 | 86 | 1031.0 |
| 20260830221511 | 47 | 284 | 0.0 | 2.0 | 0.00 | 0.00 | 0.00 | 88 | 1031.0 |
| 20260830220046 | 45 | 273 | 1.0 | 2.0 | 0.00 | 0.00 | 0.00 | 88 | 1031.0 |
| 20260830214547 | 44 | 289 | 0.0 | 1.0 | 0.00 | 0.00 | 0.00 | 89 | 1030.9 |
| 20260830213009 | 42 | 294 | 0.0 | 1.0 | 0.00 | 0.00 | 0.00 | 90 | 1030.7 |
| 20260830211507 | 42 | 286 | 1.0 | 2.0 | 0.00 | 0.00 | 0.00 | 90 | 1030.5 |
| 20260830210048 | 40 | 301 | 0.0 | 2.0 | 0.00 | 0.00 | 0.00 | 92 | 1030.4 |
| 20260830204502 | 39 | 310 | 0.0 | 1.0 | 0.00 | 0.00 | 0.00 | 94 | 1030.2 |
| 20260830203047 | 38 | 319 | 0.0 | 1.0 | 0.00 | 0.00 | 0.00 | 95 | 1030.1 |
| 20260830201550 | 37 | 7 | 0.0 | 0.0 | 0.00 | 0.00 | 0.00 | 94 | 1030.0 |
| 20260830200027 | 37 | 7 | 0.0 | 0.0 | 0.00 | 0.01 | 0.00 | 93 | 1029.8 |
| 20260830194543 | 38 | 315 | 0.0 | 1.0 | 0.00 | 0.01 | 0.00 | 93 | 1029.7 |
| 20260830193028 | 38 | 298 | 1.0 | 3.0 | 0.00 | 0.01 | 0.00 | 93 | 1029.4 |
| 20260830191555 | 38 | 303 | 0.0 | 2.0 | 0.00 | 0.01 | 0.00 | 93 | 1029.3 |
| 20260830190101 | 38 | 301 | 1.0 | 2.0 | 0.00 | 0.01 | 0.00 | 93 | 1029.3 |
| 20260830184559 | 39 | 303 | 0.0 | 2.0 | 0.00 | 0.01 | 0.00 | 92 | 1029.3 |
| 20260830183041 | 39 | 289 | 0.0 | 1.0 | 0.00 | 0.01 | 0.00 | 91 | 1029.4 |
| 20260830181547 | 39 | 305 | 0.0 | 0.0 | 0.00 | 0.01 | 0.00 | 91 | 1029.5 |
| 20260830180034 | 40 | 292 | 0.0 | 1.0 | 0.00 | 0.01 | 0.00 | 89 | 1029.5 |
| 20260830174608 | 41 | 24 | 0.0 | 3.0 | 0.00 | 0.01 | 0.00 | 91 | 1029.5 |
| 20260830173029 | 40 | 33 | 0.0 | 0.0 | 0.00 | 0.01 | 0.00 | 89 | 1029.7 |
| 20260830171545 | 41 | 34 | 0.0 | 1.0 | 0.00 | 0.01 | 0.00 | 90 | 1029.8 |
| 20260830170036 | 41 | 316 | 0.0 | 1.0 | 0.00 | 0.01 | 0.00 | 89 | 1030.0 |
| 20260830164526 | 41 | 304 | 0.0 | 2.0 | 0.00 | 0.01 | 0.00 | 89 | 1030.0 |
| 20260830163016 | 41 | 301 | 0.0 | 1.0 | 0.00 | 0.01 | 0.00 | 91 | 1030.0 |
| 20260830161522 | 40 | 315 | 0.0 | 1.0 | 0.00 | 0.01 | 0.00 | 91 | 1030.2 |
| 20260830160004 | 41 | 305 | 0.0 | 1.0 | 0.00 | 0.01 | 0.00 | 89 | 1030.2 |
| 20260830154601 | 41 | 308 | 0.0 | 1.0 | 0.00 | 0.01 | 0.00 | 89 | 1030.2 |
| 20260830153035 | 42 | 313 | 0.0 | 3.0 | 0.00 | 0.01 | 0.00 | 88 | 1030.4 |
| 20260830151540 | 42 | 324 | 0.0 | 1.0 | 0.00 | 0.01 | 0.00 | 87 | 1030.4 |
| 20260830150023 | 42 | 312 | 0.0 | 1.0 | 0.00 | 0.01 | 0.00 | 87 | 1030.3 |
| 20260830144550 | 42 | 308 | 0.0 | 1.0 | 0.00 | 0.01 | 0.00 | 87 | 1030.4 |
| 20260830143032 | 42 | 308 | 0.0 | 1.0 | 0.00 | 0.01 | 0.00 | 87 | 1030.5 |
| 20260830141541 | 42 | 307 | 0.0 | 1.0 | 0.00 | 0.01 | 0.00 | 86 | 1030.5 |
| 20260830140002 | 43 | 313 | 0.0 | 1.0 | 0.00 | 0.01 | 0.01 | 86 | 1030.4 |
| 20260830134524 | 43 | 65 | 0.0 | 1.0 | 0.00 | 0.01 | 0.01 | 85 | 1030.5 |
| 20260830133029 | 43 | 316 | 0.0 | 1.0 | 0.00 | 0.01 | 0.01 | 85 | 1030.6 |
| 20260830131549 | 44 | 342 | 0.0 | 0.0 | 0.00 | 0.01 | 0.01 | 82 | 1030.5 |
| 20260830130028 | 44 | 331 | 0.0 | 1.0 | 0.00 | 0.01 | 0.01 | 83 | 1030.7 |
| 20260830124543 | 44 | 317 | 0.0 | 1.0 | 0.00 | 0.01 | 0.01 | 82 | 1030.7 |
| 20260830123032 | 45 | 322 | 0.0 | 1.0 | 0.00 | 0.01 | 0.01 | 82 | 1030.7 |
| 20260830121544 | 45 | 305 | 0.0 | 1.0 | 0.00 | 0.01 | 0.01 | 82 | 1030.7 |
| 20260830120025 | 46 | 301 | 0.0 | 1.0 | 0.00 | 0.01 | 0.01 | 80 | 1030.6 |
| 20260830114541 | 45 | 301 | 0.0 | 1.0 | 0.00 | 0.01 | 0.01 | 80 | 1030.7 |
| 20260830113019 | 46 | 7 | 0.0 | 0.0 | 0.00 | 0.01 | 0.01 | 77 | 1030.6 |
| 20260830111535 | 47 | 8 | 0.0 | 0.0 | 0.00 | 0.01 | 0.01 | 75 | 1030.4 |
| 20260830110018 | 48 | 330 | 0.0 | 1.0 | 0.00 | 0.01 | 0.01 | 73 | 1030.4 |
| 20260830104533 | 49 | 17 | 0.0 | 0.0 | 0.00 | 0.01 | 0.01 | 72 | 1030.3 |
| 20260830103031 | 49 | 334 | 0.0 | 0.0 | 0.00 | 0.01 | 0.01 | 71 | 1030.3 |
| 20260830101537 | 50 | 274 | 0.0 | 0.0 | 0.00 | 0.01 | 0.01 | 70 | 1030.0 |
| 20260830100023 | 50 | 274 | 0.0 | 0.0 | 0.00 | 0.01 | 0.01 | 67 | 1029.8 |
| 20260830094544 | 51 | 274 | 0.0 | 0.0 | 0.00 | 0.01 | 0.01 | 67 | 1029.7 |
| 20260830093038 | 51 | 275 | 0.0 | 1.0 | 0.00 | 0.01 | 0.01 | 66 | 1029.6 |
| 20260830091533 | 52 | 274 | 0.0 | 1.0 | 0.00 | 0.01 | 0.01 | 64 | 1029.4 |
| 20260830090030 | 55 | 82 | 0.0 | 3.0 | 0.00 | 0.01 | 0.01 | 59 | 1029.4 |
| 20260830084533 | 56 | 52 | 3.0 | 6.0 | 0.00 | 0.01 | 0.01 | 57 | 1029.2 |
| 20260830083017 | 56 | 64 | 3.0 | 6.0 | 0.00 | 0.01 | 0.01 | 57 | 1028.9 |
| 20260830081525 | 57 | 90 | 4.0 | 11.0 | 0.00 | 0.01 | 0.01 | 56 | 1028.8 |
| 20260830080014 | 57 | 70 | 1.0 | 6.0 | 0.00 | 0.01 | 0.01 | 56 | 1028.5 |
| 20260830074541 | 58 | 102 | 4.0 | 10.0 | 0.00 | 0.01 | 0.01 | 55 | 1028.4 |
| 20260830073009 | 59 | 80 | 3.0 | 7.0 | 0.00 | 0.01 | 0.01 | 56 | 1028.2 |
| 20260830071519 | 60 | 84 | 4.0 | 9.0 | 0.00 | 0.01 | 0.01 | 54 | 1028.0 |
| 20260830070056 | 61 | 86 | 5.0 | 11.0 | 0.00 | 0.01 | 0.01 | 52 | 1027.8 |
| 20260830064604 | 62 | 93 | 7.0 | 12.0 | 0.00 | 0.01 | 0.01 | 53 | 1027.7 |